createdAt,value
2022-12-03T00:01:36.960Z,5.90
2022-12-03T00:04:06.311Z,6.65
2022-12-03T00:06:35.333Z,5.20
2022-12-03T00:09:05.629Z,4.95
2022-12-03T00:11:35.951Z,4.80
2022-12-03T00:14:04.932Z,5.18
2022-12-03T00:16:33.852Z,4.57
2022-12-03T00:19:03.267Z,3.80
2022-12-03T00:21:32.700Z,4.05
2022-12-03T00:24:02.012Z,4.63
2022-12-03T00:26:30.875Z,4.47
2022-12-03T00:29:01.201Z,5.25
2022-12-03T00:31:30.147Z,5.90
2022-12-03T00:33:59.156Z,5.00
2022-12-03T00:36:28.030Z,4.90
2022-12-03T00:38:56.999Z,6.40
2022-12-03T00:41:25.889Z,7.70
2022-12-03T00:43:57.550Z,8.32
2022-12-03T00:46:28.347Z,5.57
2022-12-03T00:48:57.310Z,5.85
2022-12-03T00:51:26.282Z,6.00
2022-12-03T00:53:56.807Z,5.00
2022-12-03T00:56:25.692Z,5.03
2022-12-03T00:58:57.166Z,4.75
2022-12-03T01:01:27.737Z,4.57
2022-12-03T01:03:56.679Z,4.50
2022-12-03T01:06:25.572Z,4.47
2022-12-03T01:08:54.599Z,3.10
2022-12-03T01:11:38.790Z,4.75
2022-12-03T01:14:08.397Z,3.92
2022-12-03T01:16:39.141Z,4.45
2022-12-03T01:19:08.760Z,5.32
2022-12-03T01:21:37.925Z,3.83
2022-12-03T01:24:07.503Z,5.03
2022-12-03T01:26:36.345Z,4.22
2022-12-03T01:29:05.741Z,3.75
2022-12-03T01:31:52.101Z,4.20
2022-12-03T01:34:22.537Z,3.83
2022-12-03T01:36:52.613Z,4.53
2022-12-03T01:39:21.723Z,3.92
2022-12-03T01:41:53.102Z,4.40
2022-12-03T01:44:25.186Z,4.03
2022-12-03T01:46:56.645Z,5.68
2022-12-03T01:49:30.389Z,5.93
2022-12-03T01:52:00.697Z,4.93
2022-12-03T01:54:37.713Z,3.70
2022-12-03T01:57:07.455Z,4.55
2022-12-03T01:59:39.888Z,3.20
2022-12-03T02:02:15.273Z,4.82
2022-12-03T02:04:45.757Z,5.65
2022-12-03T02:07:19.846Z,5.85
2022-12-03T02:09:49.105Z,4.28
2022-12-03T02:12:21.380Z,4.70
2022-12-03T02:14:51.458Z,5.03
2022-12-03T02:17:20.933Z,6.43
2022-12-03T02:19:51.462Z,4.45
2022-12-03T02:22:31.573Z,4.82
2022-12-03T02:25:16.662Z,6.15
2022-12-03T02:27:46.840Z,7.47
2022-12-03T02:30:19.323Z,7.22
2022-12-03T02:32:48.919Z,6.40
2022-12-03T02:35:19.903Z,7.43
2022-12-03T02:37:52.316Z,7.35
2022-12-03T02:40:26.097Z,5.57
2022-12-03T02:42:58.831Z,4.38
2022-12-03T02:45:30.625Z,3.92
2022-12-03T02:48:03.334Z,4.55
2022-12-03T02:50:35.060Z,4.25
2022-12-03T02:53:06.919Z,4.47
2022-12-03T02:55:38.190Z,3.88
2022-12-03T02:58:07.270Z,3.53
2022-12-03T03:00:37.564Z,4.68
2022-12-03T03:03:08.399Z,4.80
2022-12-03T03:05:40.056Z,4.97
2022-12-03T03:08:10.177Z,5.82
2022-12-03T03:10:42.088Z,5.55
2022-12-03T03:13:13.611Z,5.72
2022-12-03T03:15:43.528Z,6.65
2022-12-03T03:18:14.434Z,5.22
2022-12-03T03:20:44.659Z,6.13
2022-12-03T03:23:19.953Z,6.47
2022-12-03T03:25:55.471Z,4.82
2022-12-03T03:28:25.122Z,6.28
2022-12-03T03:30:54.326Z,5.88
2022-12-03T03:33:23.490Z,7.10
2022-12-03T03:35:52.696Z,4.97
2022-12-03T03:38:23.304Z,5.70
2022-12-03T03:40:54.758Z,6.45
2022-12-03T03:43:24.525Z,5.13
2022-12-03T03:45:55.175Z,4.63
2022-12-03T03:48:24.389Z,4.43
2022-12-03T03:50:53.767Z,5.22
2022-12-03T03:53:23.920Z,7.93
2022-12-03T03:55:54.751Z,9.75
2022-12-03T03:58:23.691Z,7.40
2022-12-03T04:00:53.267Z,5.43
2022-12-03T04:03:22.168Z,5.25
2022-12-03T04:05:51.432Z,6.53
2022-12-03T04:08:20.419Z,6.45
2022-12-03T04:11:06.722Z,4.97
2022-12-03T04:13:37.013Z,5.38
2022-12-03T04:16:06.322Z,5.97
2022-12-03T04:18:44.114Z,9.15
2022-12-03T04:21:33.151Z,7.25
2022-12-03T04:24:02.404Z,7.78
2022-12-03T04:26:49.292Z,7.43
2022-12-03T04:29:22.508Z,10.40
2022-12-03T04:32:09.313Z,7.82
2022-12-03T04:34:55.747Z,7.07
2022-12-03T04:37:25.025Z,8.45
2022-12-03T04:39:53.903Z,8.80
2022-12-03T04:42:22.808Z,6.85
2022-12-03T04:44:53.257Z,4.90
2022-12-03T04:47:23.214Z,5.63
2022-12-03T04:49:52.814Z,4.20
2022-12-03T04:52:22.387Z,4.65
2022-12-03T04:55:06.983Z,5.23
2022-12-03T04:57:35.863Z,6.22
2022-12-03T05:00:07.517Z,7.25
2022-12-03T05:02:36.480Z,5.95
2022-12-03T05:05:05.984Z,5.45
2022-12-03T05:07:34.971Z,6.30
2022-12-03T05:10:04.599Z,5.03
2022-12-03T05:12:33.463Z,3.67
2022-12-03T05:15:02.617Z,4.47
2022-12-03T05:17:32.877Z,4.30
2022-12-03T05:20:19.476Z,5.53
2022-12-03T05:22:48.433Z,4.75
2022-12-03T05:25:17.439Z,4.30
2022-12-03T05:27:46.369Z,4.25
2022-12-03T05:30:15.824Z,5.85
2022-12-03T05:32:46.223Z,4.70
2022-12-03T05:35:15.200Z,5.72
2022-12-03T05:37:44.393Z,5.43
2022-12-03T05:40:14.562Z,4.32
2022-12-03T05:42:54.835Z,3.90
2022-12-03T05:45:25.261Z,5.90
2022-12-03T05:47:56.628Z,4.55
2022-12-03T05:50:27.632Z,6.13
2022-12-03T05:52:57.538Z,3.70
2022-12-03T05:55:26.911Z,4.22
2022-12-03T05:57:55.966Z,12.35
2022-12-03T06:00:26.498Z,13.40
2022-12-03T06:02:57.417Z,12.93
2022-12-03T06:05:26.843Z,17.02
2022-12-03T06:07:56.368Z,21.88
2022-12-03T06:10:26.836Z,24.92
2022-12-03T06:12:55.739Z,19.67
2022-12-03T06:15:25.028Z,15.73
2022-12-03T06:17:53.872Z,16.35
2022-12-03T06:20:24.187Z,14.07
2022-12-03T06:22:53.069Z,16.25
2022-12-03T06:25:21.967Z,12.27
2022-12-03T06:27:50.849Z,9.43
2022-12-03T06:30:19.862Z,3.80
2022-12-03T06:32:48.752Z,10.63
2022-12-03T06:35:17.699Z,26.00
2022-12-03T06:37:47.998Z,4.57
2022-12-03T06:40:17.102Z,3.78
2022-12-03T06:42:46.037Z,2.20
2022-12-03T06:45:15.147Z,3.58
2022-12-03T06:47:44.084Z,3.33
2022-12-03T06:50:13.948Z,2.75
2022-12-03T06:52:42.932Z,2.85
2022-12-03T06:55:13.201Z,3.13
2022-12-03T06:57:42.042Z,3.08
2022-12-03T07:00:12.424Z,2.67
2022-12-03T07:02:41.492Z,11.52
2022-12-03T07:05:10.889Z,24.60
2022-12-03T07:07:41.004Z,6.60
2022-12-03T07:10:10.575Z,19.42
2022-12-03T07:12:40.752Z,13.10
2022-12-03T07:15:10.529Z,12.05
2022-12-03T07:17:39.392Z,7.72
2022-12-03T07:20:09.540Z,7.90
2022-12-03T07:22:38.407Z,4.28
2022-12-03T07:25:08.231Z,3.88
2022-12-03T07:27:37.135Z,8.60
2022-12-03T07:30:09.456Z,4.65
2022-12-03T07:32:38.343Z,2.97
2022-12-03T07:35:07.812Z,3.22
2022-12-03T07:37:36.716Z,3.53
2022-12-03T07:40:06.966Z,6.10
2022-12-03T07:42:35.909Z,7.20
2022-12-03T07:45:05.284Z,5.55
2022-12-03T07:47:35.742Z,6.50
2022-12-03T07:50:04.823Z,5.53
2022-12-03T07:52:33.691Z,8.15
2022-12-03T07:55:03.252Z,4.47
2022-12-03T07:57:32.249Z,5.00
2022-12-03T08:00:01.138Z,5.20
2022-12-03T08:02:30.193Z,5.60
2022-12-03T08:05:00.499Z,4.18
2022-12-03T08:07:30.389Z,5.00
2022-12-03T08:09:59.356Z,19.27
2022-12-03T08:12:40.208Z,5.15
2022-12-03T08:15:14.616Z,7.55
2022-12-03T08:17:44.439Z,5.78
2022-12-03T08:20:18.837Z,10.75
2022-12-03T08:22:50.503Z,10.87
2022-12-03T08:25:22.770Z,11.00
2022-12-03T08:27:53.049Z,8.35
2022-12-03T08:30:22.923Z,8.40
2022-12-03T08:32:52.562Z,3.78
2022-12-03T08:35:25.998Z,3.58
2022-12-03T08:38:00.974Z,3.13
2022-12-03T08:40:36.200Z,4.70
2022-12-03T08:43:14.877Z,4.15
2022-12-03T08:45:44.217Z,15.15
2022-12-03T08:48:33.704Z,5.15
2022-12-03T08:51:10.231Z,4.68
2022-12-03T08:53:42.632Z,4.65
2022-12-03T08:56:22.559Z,4.70
2022-12-03T08:58:54.814Z,3.78
2022-12-03T09:01:34.872Z,4.05
2022-12-03T09:04:22.603Z,7.60
2022-12-03T09:06:54.206Z,9.05
2022-12-03T09:09:24.000Z,9.02
2022-12-03T09:11:54.007Z,6.93
2022-12-03T09:14:23.776Z,5.13
2022-12-03T09:16:55.982Z,9.32
2022-12-03T09:19:26.151Z,7.38
2022-12-03T09:21:56.447Z,7.20
2022-12-03T09:24:25.361Z,6.70
2022-12-03T09:26:54.361Z,4.82
2022-12-03T09:29:23.753Z,5.45
2022-12-03T09:31:52.726Z,7.88
2022-12-03T09:34:21.656Z,7.97
2022-12-03T09:36:50.576Z,7.40
2022-12-03T09:39:20.863Z,5.97
2022-12-03T09:41:50.930Z,5.43
2022-12-03T09:44:20.408Z,6.00
2022-12-03T09:46:49.700Z,5.20
2022-12-03T09:49:20.249Z,5.13
2022-12-03T09:51:49.221Z,5.35
2022-12-03T09:54:24.949Z,6.05
2022-12-03T09:56:54.906Z,7.35
2022-12-03T09:59:27.372Z,4.47
2022-12-03T10:01:56.657Z,5.45
2022-12-03T10:04:26.042Z,6.28
2022-12-03T10:06:55.324Z,6.55
2022-12-03T10:09:28.522Z,4.88
2022-12-03T10:11:58.524Z,5.18
2022-12-03T10:14:28.315Z,7.57
2022-12-03T10:16:57.578Z,5.32
2022-12-03T10:19:30.129Z,6.00
2022-12-03T10:21:59.495Z,7.55
2022-12-03T10:24:31.111Z,6.32
2022-12-03T10:27:02.081Z,6.05
2022-12-03T10:29:34.531Z,7.18
2022-12-03T10:32:05.843Z,6.05
2022-12-03T10:34:36.313Z,5.43
2022-12-03T10:37:14.821Z,6.43
2022-12-03T10:39:59.916Z,6.78
2022-12-03T10:42:31.479Z,4.05
2022-12-03T10:45:15.598Z,5.88
2022-12-03T10:47:45.615Z,4.38
2022-12-03T10:50:20.237Z,4.93
2022-12-03T10:52:49.368Z,4.57
2022-12-03T10:55:19.945Z,5.07
2022-12-03T10:57:49.005Z,6.15
2022-12-03T11:00:19.696Z,4.63
2022-12-03T11:02:54.954Z,5.95
2022-12-03T11:05:28.631Z,4.55
2022-12-03T11:07:57.934Z,6.45
2022-12-03T11:10:28.245Z,3.40
2022-12-03T11:13:29.245Z,2.65
2022-12-03T11:15:59.534Z,3.67
2022-12-03T11:19:01.235Z,2.05
2022-12-03T11:21:31.104Z,2.88
2022-12-03T11:24:20.521Z,6.20
2022-12-03T11:27:20.891Z,4.78
2022-12-03T11:30:01.244Z,6.28
2022-12-03T11:33:00.743Z,4.38
2022-12-03T11:35:36.853Z,3.45
2022-12-03T11:38:53.637Z,2.42
2022-12-03T11:41:29.136Z,7.70
2022-12-03T11:46:52.178Z,4.70
2022-12-03T11:49:29.221Z,4.30
2022-12-03T11:51:59.026Z,3.65
2022-12-03T11:54:28.340Z,3.90
2022-12-03T11:56:57.348Z,3.53
2022-12-03T11:59:27.719Z,4.00
2022-12-03T12:01:58.052Z,4.22
2022-12-03T12:04:33.544Z,3.83
2022-12-03T12:07:03.130Z,4.43
2022-12-03T12:09:52.072Z,4.00
2022-12-03T12:12:28.575Z,7.20
2022-12-03T12:14:58.083Z,5.78
2022-12-03T12:17:34.486Z,4.65
2022-12-03T12:20:27.979Z,4.78
2022-12-03T12:22:57.655Z,4.57
2022-12-03T12:25:38.681Z,4.60
2022-12-03T12:28:08.747Z,5.97
2022-12-03T12:30:40.082Z,4.53
2022-12-03T12:33:19.112Z,2.97
2022-12-03T12:35:48.039Z,4.88
2022-12-03T12:38:19.052Z,3.85
2022-12-03T12:40:50.212Z,6.88
2022-12-03T12:43:24.678Z,5.93
2022-12-03T12:45:55.955Z,7.53
2022-12-03T12:48:28.620Z,12.07
2022-12-03T12:51:07.656Z,9.98
2022-12-03T12:53:37.499Z,5.90
2022-12-03T12:56:16.049Z,5.93
2022-12-03T12:58:45.091Z,5.25
2022-12-03T13:01:26.378Z,6.82
2022-12-03T13:03:56.824Z,10.95
2022-12-03T13:06:28.313Z,6.35
2022-12-03T13:08:58.771Z,7.18
2022-12-03T13:11:37.100Z,6.88
2022-12-03T13:14:14.593Z,5.95
2022-12-03T13:16:43.704Z,5.72
2022-12-03T13:19:23.940Z,5.68
2022-12-03T13:21:54.859Z,5.07
2022-12-03T13:24:31.525Z,4.25
2022-12-03T13:27:02.030Z,4.63
2022-12-03T13:29:33.145Z,5.22
2022-12-03T13:32:10.529Z,3.78
2022-12-03T13:34:41.133Z,4.22
2022-12-03T13:37:17.103Z,3.60
2022-12-03T13:39:50.417Z,3.20
2022-12-03T13:42:42.385Z,4.55
2022-12-03T13:45:31.815Z,4.60
2022-12-03T13:48:03.297Z,3.95
2022-12-03T13:50:37.688Z,3.63
2022-12-03T13:53:17.015Z,3.85
2022-12-03T13:55:48.441Z,2.78
2022-12-03T13:58:17.237Z,3.30
2022-12-03T14:00:46.276Z,5.20
2022-12-03T14:03:17.611Z,3.38
2022-12-03T14:05:47.787Z,5.20
2022-12-03T14:08:16.697Z,4.45
2022-12-03T14:10:45.662Z,5.40
2022-12-03T14:13:14.397Z,26.67
2022-12-03T14:15:43.232Z,16.92
2022-12-03T14:18:12.164Z,5.18
2022-12-03T14:20:40.932Z,5.38
2022-12-03T14:23:11.101Z,9.52
2022-12-03T14:25:39.899Z,3.83
2022-12-03T14:28:09.684Z,3.65
2022-12-03T14:30:38.561Z,4.45
2022-12-03T14:33:07.407Z,3.78
2022-12-03T14:35:37.561Z,4.50
2022-12-03T14:38:06.396Z,4.03
2022-12-03T14:40:36.550Z,2.85
2022-12-03T14:43:05.400Z,3.25
2022-12-03T14:45:34.228Z,2.85
2022-12-03T14:48:05.222Z,2.47
2022-12-03T14:50:34.006Z,4.18
2022-12-03T14:53:02.820Z,2.97
2022-12-03T14:55:32.244Z,3.30
2022-12-03T14:58:02.485Z,2.42
2022-12-03T15:00:31.360Z,4.32
2022-12-03T15:03:00.258Z,4.65
2022-12-03T15:05:29.621Z,3.63
2022-12-03T15:07:58.500Z,3.20
2022-12-03T15:10:27.784Z,2.55
2022-12-03T15:12:56.559Z,2.20
2022-12-03T15:15:26.769Z,3.00
2022-12-03T15:17:55.905Z,4.07
2022-12-03T15:20:24.744Z,3.97
2022-12-03T15:22:53.627Z,5.78
2022-12-03T15:25:25.717Z,3.45
2022-12-03T15:27:54.512Z,3.22
2022-12-03T15:30:23.415Z,3.33
2022-12-03T15:32:53.558Z,2.95
2022-12-03T15:35:22.300Z,2.55
2022-12-03T15:37:51.177Z,2.42
2022-12-03T15:40:20.208Z,2.42
2022-12-03T15:42:49.071Z,2.95
2022-12-03T15:45:18.446Z,3.25
2022-12-03T15:47:47.399Z,2.45
2022-12-03T15:50:17.755Z,3.20
2022-12-03T15:52:46.677Z,4.80
2022-12-03T15:55:16.369Z,9.82
2022-12-03T15:57:45.217Z,9.23
2022-12-03T16:00:15.279Z,3.95
2022-12-03T16:02:50.861Z,3.47
2022-12-03T16:05:22.753Z,3.58
2022-12-03T16:07:51.638Z,3.22
2022-12-03T16:10:21.576Z,3.17
2022-12-03T16:12:50.581Z,3.72
2022-12-03T16:15:25.083Z,10.25
2022-12-03T16:17:55.747Z,3.90
2022-12-03T16:20:28.501Z,2.83
2022-12-03T16:22:57.446Z,3.53
2022-12-03T16:25:28.040Z,2.90
2022-12-03T16:27:57.260Z,2.83
2022-12-03T16:30:26.105Z,3.28
2022-12-03T16:32:55.053Z,3.42
2022-12-03T16:35:25.228Z,3.05
2022-12-03T16:37:54.179Z,3.72
2022-12-03T16:40:23.148Z,3.03
2022-12-03T16:42:52.039Z,2.70
2022-12-03T16:45:33.686Z,3.40
2022-12-03T16:48:03.659Z,3.28
2022-12-03T16:50:33.847Z,3.17
2022-12-03T16:53:03.319Z,3.25
2022-12-03T16:55:32.844Z,5.32
2022-12-03T16:58:01.700Z,5.55
2022-12-03T17:00:30.558Z,7.20
2022-12-03T17:02:59.482Z,11.93
2022-12-03T17:05:28.428Z,14.38
2022-12-03T17:07:58.802Z,14.25
2022-12-03T17:10:27.954Z,13.50
2022-12-03T17:13:12.227Z,13.65
2022-12-03T17:15:41.692Z,12.05
2022-12-03T17:18:11.211Z,12.68
2022-12-03T17:20:40.020Z,9.90
2022-12-03T17:23:10.426Z,8.90
2022-12-03T17:25:39.253Z,6.75
2022-12-03T17:28:08.090Z,9.18
2022-12-03T17:30:36.875Z,8.52
2022-12-03T17:33:05.773Z,20.85
2022-12-03T17:35:34.608Z,21.95
2022-12-03T17:38:04.096Z,17.88
2022-12-03T17:40:34.306Z,15.25
2022-12-03T17:43:03.781Z,9.70
2022-12-03T17:45:32.602Z,6.38
2022-12-03T17:48:01.996Z,11.93
2022-12-03T17:50:30.813Z,8.90
2022-12-03T17:52:59.683Z,6.47
2022-12-03T17:55:37.226Z,6.85
2022-12-03T17:58:13.085Z,6.25
2022-12-03T18:00:41.919Z,5.05
2022-12-03T18:03:10.765Z,5.03
2022-12-03T18:05:39.558Z,4.85
2022-12-03T18:08:08.447Z,6.05
2022-12-03T18:10:37.371Z,4.38
2022-12-03T18:13:06.184Z,5.82
2022-12-03T18:15:36.348Z,6.40
2022-12-03T18:18:05.390Z,5.28
2022-12-03T18:20:34.394Z,6.22
2022-12-03T18:23:03.792Z,6.63
2022-12-03T18:25:32.739Z,5.05
2022-12-03T18:28:02.065Z,4.93
2022-12-03T18:30:31.079Z,6.43
2022-12-03T18:33:02.025Z,6.18
2022-12-03T18:35:31.892Z,4.85
2022-12-03T18:38:00.728Z,5.78
2022-12-03T18:40:29.704Z,7.22
2022-12-03T18:42:58.515Z,7.05
2022-12-03T18:45:27.322Z,7.07
2022-12-03T18:47:56.892Z,5.82
2022-12-03T18:50:27.191Z,5.10
2022-12-03T18:52:56.023Z,4.43
2022-12-03T18:55:27.061Z,8.57
2022-12-03T18:57:55.842Z,6.97
2022-12-03T19:00:24.970Z,6.38
2022-12-03T19:03:03.218Z,7.10
2022-12-03T19:05:36.024Z,7.35
2022-12-03T19:08:12.629Z,5.50
2022-12-03T19:10:42.654Z,6.40
2022-12-03T19:13:11.546Z,8.50
2022-12-03T19:15:40.863Z,6.45
2022-12-03T19:18:09.753Z,7.72
2022-12-03T19:20:42.691Z,10.35
2022-12-03T19:23:11.654Z,8.07
2022-12-03T19:25:40.471Z,8.68
2022-12-03T19:28:09.617Z,9.43
2022-12-03T19:30:38.461Z,7.72
2022-12-03T19:33:07.232Z,9.63
2022-12-03T19:35:40.467Z,10.02
2022-12-03T19:38:11.054Z,13.48
2022-12-03T19:40:39.814Z,10.35
2022-12-03T19:43:08.604Z,11.07
2022-12-03T19:45:37.692Z,9.98
2022-12-03T19:48:06.777Z,9.15
2022-12-03T19:50:35.592Z,10.15
2022-12-03T19:53:04.430Z,10.70
2022-12-03T19:55:37.445Z,9.07
2022-12-03T19:58:06.236Z,10.63
2022-12-03T20:00:35.528Z,9.23
2022-12-03T20:03:04.587Z,9.70
2022-12-03T20:05:37.392Z,12.55
2022-12-03T20:08:07.344Z,18.00
2022-12-03T20:10:37.592Z,18.83
2022-12-03T20:13:06.671Z,12.95
2022-12-03T20:15:37.975Z,13.80
2022-12-03T20:18:06.986Z,11.88
2022-12-03T20:20:35.791Z,8.75
2022-12-03T20:23:04.730Z,6.72
2022-12-03T20:25:33.526Z,6.13
2022-12-03T20:28:03.779Z,4.53
2022-12-03T20:30:32.583Z,5.90
2022-12-03T20:33:02.024Z,5.25
2022-12-03T20:35:30.783Z,5.65
2022-12-03T20:37:59.568Z,6.03
2022-12-03T20:40:28.507Z,12.60
2022-12-03T20:42:57.238Z,11.30
2022-12-03T20:45:28.332Z,7.93
2022-12-03T20:47:57.104Z,7.38
2022-12-03T20:50:25.930Z,7.88
2022-12-03T20:53:16.644Z,11.45
2022-12-03T20:55:43.427Z,5.95
2022-12-03T20:58:12.196Z,6.10
2022-12-03T21:00:42.345Z,3.55
2022-12-03T21:03:11.260Z,30.40
2022-12-03T21:05:40.132Z,6.60
2022-12-03T21:08:09.003Z,3.67
2022-12-03T21:10:44.787Z,3.80
2022-12-03T21:13:15.024Z,2.35
2022-12-03T21:15:46.567Z,4.57
2022-12-03T21:18:17.801Z,3.40
2022-12-03T21:20:48.514Z,3.05
2022-12-03T21:23:17.382Z,3.58
2022-12-03T21:25:46.239Z,3.90
2022-12-03T21:28:15.043Z,4.60
2022-12-03T21:30:45.435Z,5.35
2022-12-03T21:33:14.711Z,4.22
2022-12-03T21:35:43.550Z,4.55
2022-12-03T21:38:12.509Z,3.65
2022-12-03T21:40:41.432Z,4.28
2022-12-03T21:43:10.348Z,4.13
2022-12-03T21:45:40.995Z,5.13
2022-12-03T21:48:11.796Z,3.60
2022-12-03T21:50:40.721Z,2.47
2022-12-03T21:53:09.949Z,2.50
2022-12-03T21:55:39.918Z,3.88
2022-12-03T21:58:09.244Z,3.47
2022-12-03T22:00:38.133Z,3.85
2022-12-03T22:03:07.056Z,4.80
2022-12-03T22:05:40.858Z,5.50
2022-12-03T22:08:09.959Z,5.57
2022-12-03T22:10:40.693Z,6.90
2022-12-03T22:13:09.863Z,5.72
2022-12-03T22:15:40.131Z,5.78
2022-12-03T22:18:12.208Z,5.72
2022-12-03T22:20:44.303Z,5.47
2022-12-03T22:23:13.301Z,6.47
2022-12-03T22:25:45.553Z,5.35
2022-12-03T22:28:14.860Z,6.47
2022-12-03T22:30:43.863Z,7.20
2022-12-03T22:33:12.918Z,7.60
2022-12-03T22:35:41.820Z,5.88
2022-12-03T22:38:12.050Z,5.53
2022-12-03T22:40:41.154Z,4.32
2022-12-03T22:43:10.306Z,4.63
2022-12-03T22:45:39.192Z,3.70
2022-12-03T22:48:08.179Z,3.65
2022-12-03T22:50:42.740Z,4.05
2022-12-03T22:53:13.159Z,4.00
2022-12-03T22:55:42.910Z,3.25
2022-12-03T22:58:12.704Z,3.33
2022-12-03T23:00:42.629Z,4.57
2022-12-03T23:03:11.548Z,3.50
2022-12-03T23:05:40.962Z,5.18
2022-12-03T23:08:13.493Z,4.63
2022-12-03T23:10:44.365Z,4.22
2022-12-03T23:13:14.070Z,4.35
2022-12-03T23:15:46.085Z,4.72
2022-12-03T23:18:15.194Z,3.47
2022-12-03T23:20:45.313Z,4.13
2022-12-03T23:23:16.311Z,3.58
2022-12-03T23:25:45.192Z,4.18
2022-12-03T23:28:14.042Z,3.42
2022-12-03T23:30:42.950Z,3.35
2022-12-03T23:33:11.773Z,3.72
2022-12-03T23:35:40.789Z,4.00
2022-12-03T23:38:09.678Z,3.20
2022-12-03T23:40:43.510Z,4.28
2022-12-03T23:43:16.743Z,3.20
2022-12-03T23:45:45.661Z,3.40
2022-12-03T23:48:14.556Z,3.47
2022-12-03T23:50:43.521Z,3.30
2022-12-03T23:53:12.438Z,4.35
2022-12-03T23:55:42.753Z,4.32
2022-12-03T23:58:11.622Z,3.58
